Погода Qatanaна 2 недели

Дамаск, Сирия

23 июля-05 августа
  • 23июля
    Сегодня
    +23°
    +38°
    Ясно и безоблачно
    ВремяПогодаТемператураВлажностьДавлениеВетер, м/сВероятность осадков
    00:00Ясно и безоблачно+27°C40 %684 мм3.1 м/с1 %
    03:00Ясно и безоблачно+25°C33 %684 мм3.8 м/с1 %
    06:00Ясно и безоблачно+24°C33 %684 мм2.7 м/с1 %
    09:00Ясно и безоблачно+32°C27 %685 мм2.0 м/с1 %
    12:00Ясно и безоблачно+36°C20 %686 мм2.8 м/с1 %
    15:00Ясно и безоблачно+36°C24 %685 мм4.7 м/с1 %
    18:00Ясно и безоблачно+33°C27 %684 мм5.5 м/с1 %
    21:00Ясно и безоблачно+28°C35 %684 мм3.6 м/с1 %
  • 24июля
    Среда
    +22°
    +36°
    Ясно и безоблачно
    ВремяПогодаТемператураВлажностьДавлениеВетер, м/сВероятность осадков
    00:00Ясно и безоблачно+26°C31 %683 мм2.6 м/с1 %
    03:00Ясно и безоблачно+24°C29 %682 мм2.4 м/с1 %
    06:00Ясно и безоблачно+23°C31 %681 мм2.1 м/с1 %
    09:00Ясно и безоблачно+31°C24 %683 мм0.4 м/с1 %
    12:00Ясно и безоблачно+36°C19 %683 мм3.0 м/с1 %
    15:00Ясно и безоблачно+35°C25 %682 мм6.7 м/с1 %
    18:00Ясно и безоблачно+32°C26 %681 мм7.5 м/с1 %
    21:00Ясно и безоблачно+28°C33 %681 мм4.8 м/с1 %
  • 25июля
    Четверг
    +20°
    +34°
    Ясно и безоблачно
    ВремяПогодаТемператураВлажностьДавлениеВетер, м/сВероятность осадков
    00:00Ясно и безоблачно+25°C33 %681 мм3.3 м/с1 %
    03:00Ясно и безоблачно+23°C39 %680 мм3.0 м/с1 %
    06:00Ясно и безоблачно+22°C39 %680 мм2.3 м/с1 %
    09:00Ясно и безоблачно+30°C22 %681 мм3.7 м/с1 %
    12:00Ясно и безоблачно+33°C19 %682 мм5.6 м/с1 %
    15:00Ясно и безоблачно+33°C25 %682 мм6.3 м/с1 %
    18:00Ясно и безоблачно+30°C28 %681 мм7.2 м/с1 %
    21:00Ясно и безоблачно+26°C42 %681 мм3.2 м/с1 %
  • 26июля
    Пятница
    +18°
    +34°
    Ясно и безоблачно
    ВремяПогодаТемператураВлажностьДавлениеВетер, м/сВероятность осадков
    00:00Ясно и безоблачно+23°C50 %681 мм2.2 м/с1 %
    03:00Ясно и безоблачно+22°C51 %680 мм1.8 м/с1 %
    06:00Ясно и безоблачно+21°C54 %680 мм1.9 м/с1 %
    09:00Ясно и безоблачно+28°C28 %682 мм2.0 м/с1 %
    12:00Ясно и безоблачно+32°C22 %683 мм4.1 м/с1 %
    15:00Ясно и безоблачно+34°C22 %683 мм4.7 м/с1 %
    18:00Ясно и безоблачно+31°C22 %683 мм3.9 м/с1 %
    21:00Ясно и безоблачно+26°C48 %683 мм2.5 м/с1 %
  • 27июля
    Суббота
    +20°
    +36°
    Ясно и безоблачно
    ВремяПогодаТемператураВлажностьДавлениеВетер, м/сВероятность осадков
    00:00Ясно и безоблачно+22°C51 %683 мм2.0 м/с1 %
    03:00Ясно и безоблачно+20°C46 %682 мм1.5 м/с1 %
    06:00Ясно и безоблачно+19°C47 %683 мм1.4 м/с1 %
    09:00Ясно и безоблачно+27°C31 %685 мм0.1 м/с1 %
    12:00Ясно и безоблачно+34°C18 %686 мм0.4 м/с1 %
    15:00Ясно и безоблачно+36°C18 %685 мм2.3 м/с1 %
    18:00Ясно и безоблачно+33°C24 %684 мм4.6 м/с1 %
    21:00Ясно и безоблачно+27°C47 %684 мм2.7 м/с1 %
Мы используем cookies
Соглашаюсь